createdAt,value
2023-01-26T00:02:13.779Z,88.70
2023-01-26T00:07:21.232Z,89.10
2023-01-26T00:12:28.874Z,89.40
2023-01-26T00:17:38.718Z,93.70
2023-01-26T00:22:46.639Z,98.40
2023-01-26T00:27:55.826Z,98.70
2023-01-26T00:33:03.981Z,95.00
2023-01-26T00:38:12.770Z,103.20
2023-01-26T00:43:21.804Z,101.10
2023-01-26T00:48:32.612Z,100.30
2023-01-26T00:53:42.053Z,117.50
2023-01-26T00:58:50.555Z,104.00
2023-01-26T01:03:58.706Z,120.40
2023-01-26T01:09:08.146Z,115.90
2023-01-26T01:14:16.517Z,106.20
2023-01-26T01:19:25.036Z,109.90
2023-01-26T01:24:34.852Z,110.50
2023-01-26T01:29:43.420Z,113.60
2023-01-26T01:34:52.769Z,109.80
2023-01-26T01:40:01.526Z,110.20
2023-01-26T01:45:45.638Z,111.70
2023-01-26T01:50:58.490Z,116.70
2023-01-26T01:56:13.306Z,113.40
2023-01-26T02:01:21.646Z,100.10
2023-01-26T02:06:36.908Z,101.70
2023-01-26T02:11:48.415Z,105.90
2023-01-26T02:16:57.278Z,99.10
2023-01-26T02:22:12.866Z,107.20
2023-01-26T02:27:20.253Z,90.40
2023-01-26T02:32:28.901Z,102.20
2023-01-26T02:37:37.536Z,104.70
2023-01-26T02:42:45.887Z,96.60
2023-01-26T02:47:55.042Z,96.40
2023-01-26T02:53:04.166Z,97.60
2023-01-26T02:58:12.556Z,99.50
2023-01-26T03:03:25.586Z,87.50
2023-01-26T03:08:33.333Z,110.70
2023-01-26T03:13:41.581Z,102.20
2023-01-26T03:19:07.062Z,99.30
2023-01-26T03:24:34.344Z,98.30
2023-01-26T03:29:45.008Z,102.20
2023-01-26T03:34:52.707Z,107.60
2023-01-26T03:40:18.286Z,104.40
2023-01-26T03:45:45.874Z,96.90
2023-01-26T03:51:11.791Z,99.20
2023-01-26T03:56:25.188Z,96.70
2023-01-26T04:01:38.949Z,95.80
2023-01-26T04:07:06.073Z,102.90
2023-01-26T04:12:14.600Z,113.80
2023-01-26T04:17:55.689Z,106.60
2023-01-26T04:23:03.101Z,111.00
2023-01-26T04:28:11.486Z,108.10
2023-01-26T04:33:20.908Z,121.10
2023-01-26T04:38:29.671Z,90.90
2023-01-26T04:43:38.821Z,102.40
2023-01-26T04:48:47.854Z,95.20
2023-01-26T04:53:56.540Z,107.30
2023-01-26T04:59:08.112Z,97.30
2023-01-26T05:04:19.136Z,111.80
2023-01-26T05:09:28.339Z,103.10
2023-01-26T05:14:54.305Z,107.10
2023-01-26T05:20:15.541Z,103.40
2023-01-26T05:25:42.002Z,107.30
2023-01-26T05:30:55.769Z,100.60
2023-01-26T05:36:08.234Z,94.60
2023-01-26T05:41:17.360Z,95.50
2023-01-26T05:46:37.409Z,101.20
2023-01-26T05:51:46.651Z,96.70
2023-01-26T05:56:55.746Z,98.40
2023-01-26T06:02:07.154Z,95.10
2023-01-26T06:07:17.691Z,100.40
2023-01-26T06:12:39.010Z,103.50
2023-01-26T06:17:59.558Z,93.90
2023-01-26T06:23:13.158Z,89.70
2023-01-26T06:28:21.920Z,99.20
2023-01-26T06:33:30.272Z,92.60
2023-01-26T06:38:39.019Z,100.40
2023-01-26T06:43:49.819Z,89.70
2023-01-26T06:48:58.071Z,90.60
2023-01-26T06:54:06.593Z,93.40
2023-01-26T06:59:22.612Z,89.80
2023-01-26T07:05:05.033Z,101.50
2023-01-26T07:10:15.975Z,98.60
2023-01-26T07:15:24.472Z,107.00
2023-01-26T07:20:32.706Z,87.30
2023-01-26T07:25:45.088Z,92.90
2023-01-26T07:30:54.146Z,94.50
2023-01-26T07:36:02.723Z,97.90
2023-01-26T07:41:14.259Z,100.40
2023-01-26T07:46:23.582Z,101.10
2023-01-26T07:51:32.254Z,93.30
2023-01-26T07:56:41.329Z,103.40
2023-01-26T08:01:51.279Z,103.90
2023-01-26T08:06:59.900Z,113.90
2023-01-26T08:12:09.913Z,99.20
2023-01-26T08:17:19.477Z,93.60
2023-01-26T08:22:27.837Z,97.10
2023-01-26T08:27:36.308Z,105.50
2023-01-26T08:32:45.493Z,95.10
2023-01-26T08:37:52.999Z,94.50
2023-01-26T08:43:04.174Z,96.60
2023-01-26T08:48:13.215Z,86.10
2023-01-26T08:53:21.397Z,101.40
2023-01-26T08:58:30.752Z,84.30
2023-01-26T09:03:38.239Z,88.50
2023-01-26T09:08:47.045Z,84.60
2023-01-26T09:13:57.249Z,102.30
2023-01-26T09:19:05.673Z,95.20
2023-01-26T09:24:14.957Z,91.20
2023-01-26T09:29:23.836Z,85.50
2023-01-26T09:34:33.327Z,95.70
2023-01-26T09:39:41.669Z,74.70
2023-01-26T09:45:02.440Z,77.50
2023-01-26T09:50:16.255Z,74.40
2023-01-26T09:55:26.037Z,76.80
2023-01-26T10:00:38.660Z,80.90
2023-01-26T10:05:51.609Z,81.60
2023-01-26T10:11:28.717Z,77.90
2023-01-26T10:16:38.418Z,85.40
2023-01-26T10:21:51.145Z,90.70
2023-01-26T10:27:01.594Z,81.40
2023-01-26T10:32:14.924Z,76.80
2023-01-26T10:37:28.758Z,77.90
2023-01-26T10:42:39.296Z,76.50
2023-01-26T10:48:04.407Z,69.80
2023-01-26T10:53:19.516Z,69.50
2023-01-26T10:58:51.411Z,76.50
2023-01-26T11:04:09.521Z,67.10
2023-01-26T11:09:24.917Z,74.40
2023-01-26T11:14:35.348Z,81.60
2023-01-26T11:19:56.838Z,82.50
2023-01-26T11:25:18.767Z,70.20
2023-01-26T11:30:58.546Z,69.00
2023-01-26T11:36:16.094Z,85.30
2023-01-26T11:41:42.481Z,69.80
2023-01-26T11:47:09.806Z,78.60
2023-01-26T11:52:28.605Z,72.00
2023-01-26T11:57:45.576Z,82.50
2023-01-26T12:03:03.296Z,89.10
2023-01-26T12:08:22.774Z,71.80
2023-01-26T12:13:41.504Z,78.20
2023-01-26T12:19:10.170Z,78.90
2023-01-26T12:24:54.130Z,83.30
2023-01-26T12:30:03.149Z,70.60
2023-01-26T12:35:16.101Z,69.60
2023-01-26T12:40:36.191Z,73.10
2023-01-26T12:45:49.254Z,76.70
2023-01-26T12:51:04.006Z,75.50
2023-01-26T12:56:22.960Z,73.70
2023-01-26T13:01:40.360Z,66.10
2023-01-26T13:07:04.753Z,82.30
2023-01-26T13:12:50.104Z,73.20
2023-01-26T13:18:09.278Z,64.30
2023-01-26T13:23:44.273Z,77.70
2023-01-26T13:28:55.057Z,76.90
2023-01-26T13:34:11.351Z,63.60
2023-01-26T13:39:30.232Z,71.70
2023-01-26T13:44:45.823Z,73.90
2023-01-26T13:49:56.917Z,77.80
2023-01-26T13:55:16.159Z,74.50
2023-01-26T14:00:25.728Z,71.20
2023-01-26T14:05:36.449Z,70.70
2023-01-26T14:10:47.982Z,69.00
2023-01-26T14:16:04.979Z,65.30
2023-01-26T14:21:22.436Z,73.40
2023-01-26T14:26:34.741Z,62.50
2023-01-26T14:31:43.613Z,70.00
2023-01-26T14:37:06.536Z,67.20
2023-01-26T14:42:17.751Z,66.40
2023-01-26T14:47:31.819Z,81.20
2023-01-26T14:52:41.922Z,77.60
2023-01-26T14:57:54.695Z,66.60
2023-01-26T15:03:08.496Z,72.20
2023-01-26T15:08:26.069Z,77.10
2023-01-26T15:13:35.630Z,71.40
2023-01-26T15:18:44.403Z,75.90
2023-01-26T15:23:56.772Z,75.80
2023-01-26T15:29:08.858Z,82.60
2023-01-26T15:34:34.398Z,74.60
2023-01-26T15:39:42.211Z,75.30
2023-01-26T15:44:50.647Z,76.40
2023-01-26T15:49:59.516Z,73.70
2023-01-26T15:55:23.579Z,69.40
2023-01-26T16:00:32.488Z,68.70
2023-01-26T16:05:40.664Z,78.20
2023-01-26T16:10:49.541Z,74.60
2023-01-26T16:15:58.445Z,72.40
2023-01-26T16:21:18.604Z,81.10
2023-01-26T16:26:27.255Z,66.20
2023-01-26T16:31:37.594Z,72.00
2023-01-26T16:36:46.912Z,69.30
2023-01-26T16:41:55.875Z,66.10
2023-01-26T16:47:06.101Z,73.50
2023-01-26T16:52:14.664Z,77.80
2023-01-26T16:57:23.074Z,68.20
2023-01-26T17:02:36.420Z,72.00
2023-01-26T17:07:45.611Z,68.40
2023-01-26T17:12:54.007Z,65.20
2023-01-26T17:18:02.750Z,73.80
2023-01-26T17:23:11.641Z,64.20
2023-01-26T17:28:19.685Z,63.40
2023-01-26T17:33:28.344Z,57.90
2023-01-26T17:38:37.819Z,52.50
2023-01-26T17:43:46.651Z,73.90
2023-01-26T17:48:57.021Z,58.10
2023-01-26T17:54:06.271Z,63.50
2023-01-26T17:59:14.641Z,67.00
2023-01-26T18:04:24.260Z,71.00
2023-01-26T18:09:35.042Z,74.70
2023-01-26T18:14:43.851Z,72.20
2023-01-26T18:19:52.612Z,59.20
2023-01-26T18:25:00.883Z,75.60
2023-01-26T18:30:10.826Z,60.50
2023-01-26T18:35:20.310Z,74.00
2023-01-26T18:40:31.178Z,70.10
2023-01-26T18:45:42.519Z,73.50
2023-01-26T18:50:53.834Z,68.00
2023-01-26T18:56:08.168Z,65.90
2023-01-26T19:01:19.240Z,60.80
2023-01-26T19:06:29.012Z,66.40
2023-01-26T19:11:38.207Z,61.40
2023-01-26T19:16:49.575Z,71.20
2023-01-26T19:21:57.916Z,62.10
2023-01-26T19:27:07.298Z,75.90
2023-01-26T19:32:15.773Z,65.30
2023-01-26T19:37:24.497Z,67.60
2023-01-26T19:42:32.458Z,67.90
2023-01-26T19:47:41.485Z,67.30
2023-01-26T19:52:49.346Z,75.40
2023-01-26T19:57:56.800Z,67.20
2023-01-26T20:03:04.404Z,67.50
2023-01-26T20:08:11.731Z,61.10
2023-01-26T20:13:20.990Z,68.30
2023-01-26T20:18:29.842Z,64.50
2023-01-26T20:23:45.604Z,57.40
2023-01-26T20:29:01.658Z,67.40
2023-01-26T20:34:11.007Z,74.30
2023-01-26T20:39:27.053Z,63.40
2023-01-26T20:44:37.918Z,72.70
2023-01-26T20:49:46.453Z,77.30
2023-01-26T20:54:55.488Z,76.90
2023-01-26T21:00:04.674Z,74.20
2023-01-26T21:05:15.356Z,58.50
2023-01-26T21:10:23.643Z,65.00
2023-01-26T21:15:34.784Z,66.40
2023-01-26T21:20:42.985Z,64.60
2023-01-26T21:25:50.619Z,64.40
2023-01-26T21:31:05.050Z,67.40
2023-01-26T21:36:16.011Z,73.90
2023-01-26T21:41:44.376Z,72.90
2023-01-26T21:46:53.354Z,80.40
2023-01-26T21:52:18.377Z,68.80
2023-01-26T21:57:45.817Z,68.20
2023-01-26T22:02:54.798Z,64.60
2023-01-26T22:08:02.481Z,64.40
2023-01-26T22:13:10.715Z,73.90
2023-01-26T22:18:19.770Z,66.10
2023-01-26T22:23:28.655Z,69.40
2023-01-26T22:28:37.353Z,74.20
2023-01-26T22:33:45.590Z,71.40
2023-01-26T22:38:54.201Z,79.90
2023-01-26T22:44:03.724Z,88.90
2023-01-26T22:49:11.980Z,241.80
2023-01-26T22:54:20.241Z,164.20
2023-01-26T22:59:28.906Z,237.50
2023-01-26T23:04:37.959Z,185.90
2023-01-26T23:09:46.424Z,134.30
2023-01-26T23:14:54.670Z,227.40
2023-01-26T23:20:02.375Z,293.50
2023-01-26T23:25:30.145Z,415.10
2023-01-26T23:30:38.383Z,272.60
2023-01-26T23:35:46.835Z,149.10
2023-01-26T23:40:56.256Z,110.60
2023-01-26T23:46:05.276Z,107.80
2023-01-26T23:51:14.456Z,94.60
2023-01-26T23:56:22.878Z,77.40
